sensor_id;sensor_type;location;lat;lon;timestamp;pressure;altitude;pressure_sealevel;temperature;humidity
34586;BME280;20816;50.950;11.108;2023-07-29T00:01:10;97805.03;;;19.08;100.00
34586;BME280;20816;50.950;11.108;2023-07-29T00:03:37;97805.34;;;19.03;100.00
34586;BME280;20816;50.950;11.108;2023-07-29T00:06:04;97799.59;;;19.09;100.00
34586;BME280;20816;50.950;11.108;2023-07-29T00:08:30;97798.09;;;19.05;100.00
34586;BME280;20816;50.950;11.108;2023-07-29T00:10:57;97796.59;;;19.01;100.00
34586;BME280;20816;50.950;11.108;2023-07-29T00:13:24;97800.56;;;19.08;100.00
34586;BME280;20816;50.950;11.108;2023-07-29T00:15:54;97795.41;;;19.05;100.00
34586;BME280;20816;50.950;11.108;2023-07-29T00:18:21;97796.94;;;19.09;100.00
34586;BME280;20816;50.950;11.108;2023-07-29T00:20:49;97800.53;;;18.95;100.00
34586;BME280;20816;50.950;11.108;2023-07-29T00:23:17;97796.06;;;18.96;100.00
34586;BME280;20816;50.950;11.108;2023-07-29T00:25:45;97792.56;;;19.08;100.00
34586;BME280;20816;50.950;11.108;2023-07-29T00:28:12;97793.63;;;18.93;100.00
34586;BME280;20816;50.950;11.108;2023-07-29T00:30:39;97785.84;;;18.90;100.00
34586;BME280;20816;50.950;11.108;2023-07-29T00:33:06;97790.22;;;18.91;100.00
34586;BME280;20816;50.950;11.108;2023-07-29T00:35:32;97785.41;;;18.96;100.00
34586;BME280;20816;50.950;11.108;2023-07-29T00:37:59;97784.56;;;18.83;100.00
34586;BME280;20816;50.950;11.108;2023-07-29T00:40:28;97791.59;;;18.84;100.00
34586;BME280;20816;50.950;11.108;2023-07-29T00:42:55;97789.44;;;18.89;100.00
34586;BME280;20816;50.950;11.108;2023-07-29T00:45:23;97788.19;;;18.82;100.00
34586;BME280;20816;50.950;11.108;2023-07-29T00:47:51;97792.63;;;18.81;100.00
34586;BME280;20816;50.950;11.108;2023-07-29T00:50:18;97788.59;;;18.75;100.00
34586;BME280;20816;50.950;11.108;2023-07-29T00:52:45;97787.28;;;18.68;100.00
34586;BME280;20816;50.950;11.108;2023-07-29T00:55:12;97785.25;;;18.72;100.00
34586;BME280;20816;50.950;11.108;2023-07-29T00:57:39;97780.66;;;18.61;100.00
34586;BME280;20816;50.950;11.108;2023-07-29T01:00:07;97776.44;;;18.71;100.00
34586;BME280;20816;50.950;11.108;2023-07-29T01:02:35;97788.38;;;18.66;100.00
34586;BME280;20816;50.950;11.108;2023-07-29T01:05:03;97785.19;;;18.73;100.00
34586;BME280;20816;50.950;11.108;2023-07-29T01:07:35;97778.72;;;18.63;100.00
34586;BME280;20816;50.950;11.108;2023-07-29T01:13:21;97776.88;;;18.65;100.00
34586;BME280;20816;50.950;11.108;2023-07-29T01:15:59;97782.19;;;18.65;100.00
34586;BME280;20816;50.950;11.108;2023-07-29T01:18:30;97775.09;;;18.64;100.00
34586;BME280;20816;50.950;11.108;2023-07-29T01:21:04;97778.97;;;18.73;100.00
34586;BME280;20816;50.950;11.108;2023-07-29T01:23:35;97776.44;;;18.71;100.00
34586;BME280;20816;50.950;11.108;2023-07-29T01:26:03;97764.31;;;18.67;100.00
34586;BME280;20816;50.950;11.108;2023-07-29T01:28:30;97765.25;;;18.66;100.00
34586;BME280;20816;50.950;11.108;2023-07-29T01:31:04;97759.97;;;18.65;100.00
34586;BME280;20816;50.950;11.108;2023-07-29T01:33:45;97768.88;;;18.65;100.00
34586;BME280;20816;50.950;11.108;2023-07-29T01:36:19;97755.56;;;18.65;100.00
34586;BME280;20816;50.950;11.108;2023-07-29T01:38:47;97753.66;;;18.67;100.00
34586;BME280;20816;50.950;11.108;2023-07-29T01:41:15;97757.28;;;18.66;100.00
34586;BME280;20816;50.950;11.108;2023-07-29T01:43:44;97763.72;;;18.62;100.00
34586;BME280;20816;50.950;11.108;2023-07-29T01:46:14;97759.75;;;18.55;100.00
34586;BME280;20816;50.950;11.108;2023-07-29T01:48:42;97767.41;;;18.47;100.00
34586;BME280;20816;50.950;11.108;2023-07-29T01:51:11;97759.25;;;18.50;100.00
34586;BME280;20816;50.950;11.108;2023-07-29T01:53:38;97751.66;;;18.44;100.00
34586;BME280;20816;50.950;11.108;2023-07-29T01:56:05;97765.69;;;18.46;100.00
34586;BME280;20816;50.950;11.108;2023-07-29T01:58:32;97754.84;;;18.36;100.00
34586;BME280;20816;50.950;11.108;2023-07-29T02:00:58;97748.44;;;18.39;100.00
34586;BME280;20816;50.950;11.108;2023-07-29T02:03:25;97750.56;;;18.34;100.00
34586;BME280;20816;50.950;11.108;2023-07-29T02:05:52;97757.16;;;18.28;100.00
34586;BME280;20816;50.950;11.108;2023-07-29T02:08:18;97754.03;;;18.21;100.00
34586;BME280;20816;50.950;11.108;2023-07-29T02:10:45;97752.13;;;18.24;100.00
34586;BME280;20816;50.950;11.108;2023-07-29T02:13:12;97759.34;;;18.21;100.00
34586;BME280;20816;50.950;11.108;2023-07-29T02:15:39;97765.28;;;18.12;100.00
34586;BME280;20816;50.950;11.108;2023-07-29T02:18:06;97771.56;;;18.11;100.00
34586;BME280;20816;50.950;11.108;2023-07-29T02:20:33;97775.31;;;18.21;100.00
34586;BME280;20816;50.950;11.108;2023-07-29T02:23:00;97774.19;;;18.26;100.00
34586;BME280;20816;50.950;11.108;2023-07-29T02:25:27;97768.44;;;18.32;100.00
34586;BME280;20816;50.950;11.108;2023-07-29T02:27:54;97771.94;;;18.32;100.00
34586;BME280;20816;50.950;11.108;2023-07-29T02:30:21;97771.84;;;18.34;100.00
34586;BME280;20816;50.950;11.108;2023-07-29T02:32:47;97771.88;;;18.46;100.00
34586;BME280;20816;50.950;11.108;2023-07-29T02:35:14;97774.88;;;18.42;100.00
34586;BME280;20816;50.950;11.108;2023-07-29T02:37:41;97774.66;;;18.45;100.00
34586;BME280;20816;50.950;11.108;2023-07-29T02:40:08;97769.31;;;18.45;100.00
34586;BME280;20816;50.950;11.108;2023-07-29T02:42:35;97772.72;;;18.47;100.00
34586;BME280;20816;50.950;11.108;2023-07-29T02:45:02;97770.06;;;18.47;100.00
34586;BME280;20816;50.950;11.108;2023-07-29T02:47:28;97775.03;;;18.39;100.00
34586;BME280;20816;50.950;11.108;2023-07-29T02:49:56;97775.03;;;18.39;100.00
34586;BME280;20816;50.950;11.108;2023-07-29T02:52:22;97769.94;;;18.36;100.00
34586;BME280;20816;50.950;11.108;2023-07-29T02:54:49;97767.56;;;18.31;100.00
34586;BME280;20816;50.950;11.108;2023-07-29T02:57:15;97769.72;;;18.39;100.00
34586;BME280;20816;50.950;11.108;2023-07-29T02:59:44;97767.69;;;18.30;100.00
34586;BME280;20816;50.950;11.108;2023-07-29T03:02:11;97762.47;;;18.28;100.00
34586;BME280;20816;50.950;11.108;2023-07-29T03:04:38;97759.16;;;18.25;100.00
34586;BME280;20816;50.950;11.108;2023-07-29T03:07:05;97755.94;;;18.19;100.00
34586;BME280;20816;50.950;11.108;2023-07-29T03:09:31;97755.59;;;18.11;100.00
34586;BME280;20816;50.950;11.108;2023-07-29T03:11:59;97753.56;;;18.02;100.00
34586;BME280;20816;50.950;11.108;2023-07-29T03:14:26;97753.94;;;17.96;100.00
34586;BME280;20816;50.950;11.108;2023-07-29T03:16:52;97749.97;;;17.89;100.00
34586;BME280;20816;50.950;11.108;2023-07-29T03:19:20;97746.78;;;17.84;100.00
34586;BME280;20816;50.950;11.108;2023-07-29T03:21:46;97750.56;;;17.80;100.00
34586;BME280;20816;50.950;11.108;2023-07-29T03:24:13;97743.94;;;17.73;100.00
34586;BME280;20816;50.950;11.108;2023-07-29T03:26:40;97741.47;;;17.70;100.00
34586;BME280;20816;50.950;11.108;2023-07-29T03:29:10;97735.56;;;17.64;100.00
34586;BME280;20816;50.950;11.108;2023-07-29T03:31:36;97732.19;;;17.62;100.00
34586;BME280;20816;50.950;11.108;2023-07-29T03:34:03;97733.41;;;17.57;100.00
34586;BME280;20816;50.950;11.108;2023-07-29T03:36:30;97734.47;;;17.54;100.00
34586;BME280;20816;50.950;11.108;2023-07-29T03:38:57;97731.25;;;17.49;100.00
34586;BME280;20816;50.950;11.108;2023-07-29T03:41:24;97735.06;;;17.45;100.00
34586;BME280;20816;50.950;11.108;2023-07-29T03:43:51;97729.00;;;17.43;100.00
34586;BME280;20816;50.950;11.108;2023-07-29T03:46:18;97729.91;;;17.42;100.00
34586;BME280;20816;50.950;11.108;2023-07-29T03:48:48;97733.75;;;17.38;100.00
34586;BME280;20816;50.950;11.108;2023-07-29T03:51:14;97744.75;;;17.32;100.00
34586;BME280;20816;50.950;11.108;2023-07-29T03:53:41;97741.34;;;17.30;100.00
34586;BME280;20816;50.950;11.108;2023-07-29T03:56:08;97735.28;;;17.28;100.00
34586;BME280;20816;50.950;11.108;2023-07-29T03:58:34;97730.50;;;17.33;100.00
34586;BME280;20816;50.950;11.108;2023-07-29T04:01:01;97731.75;;;17.27;100.00
34586;BME280;20816;50.950;11.108;2023-07-29T04:03:28;97732.41;;;17.31;100.00
34586;BME280;20816;50.950;11.108;2023-07-29T04:05:54;97731.84;;;17.40;100.00
34586;BME280;20816;50.950;11.108;2023-07-29T04:08:21;97728.47;;;17.51;100.00
34586;BME280;20816;50.950;11.108;2023-07-29T04:10:48;97723.47;;;17.60;100.00
34586;BME280;20816;50.950;11.108;2023-07-29T04:13:15;97717.53;;;17.70;100.00
34586;BME280;20816;50.950;11.108;2023-07-29T04:15:41;97713.56;;;17.77;100.00
34586;BME280;20816;50.950;11.108;2023-07-29T04:18:08;97706.34;;;17.79;100.00
34586;BME280;20816;50.950;11.108;2023-07-29T04:20:35;97700.97;;;17.93;100.00
34586;BME280;20816;50.950;11.108;2023-07-29T04:23:01;97702.38;;;17.99;100.00
34586;BME280;20816;50.950;11.108;2023-07-29T04:25:28;97705.19;;;18.10;100.00
34586;BME280;20816;50.950;11.108;2023-07-29T04:27:54;97711.47;;;18.09;100.00
34586;BME280;20816;50.950;11.108;2023-07-29T04:30:21;97712.84;;;18.14;100.00
34586;BME280;20816;50.950;11.108;2023-07-29T04:32:48;97712.09;;;18.12;100.00
34586;BME280;20816;50.950;11.108;2023-07-29T04:35:15;97704.91;;;18.27;100.00
34586;BME280;20816;50.950;11.108;2023-07-29T04:37:41;97706.09;;;18.48;100.00
34586;BME280;20816;50.950;11.108;2023-07-29T04:40:08;97702.34;;;18.65;100.00
34586;BME280;20816;50.950;11.108;2023-07-29T04:42:36;97702.97;;;18.82;100.00
34586;BME280;20816;50.950;11.108;2023-07-29T04:45:03;97708.16;;;18.96;100.00
34586;BME280;20816;50.950;11.108;2023-07-29T04:47:30;97708.06;;;19.10;100.00
34586;BME280;20816;50.950;11.108;2023-07-29T04:49:56;97704.44;;;19.24;100.00
34586;BME280;20816;50.950;11.108;2023-07-29T04:52:23;97703.22;;;19.41;100.00
34586;BME280;20816;50.950;11.108;2023-07-29T04:54:50;97699.00;;;19.62;100.00
34586;BME280;20816;50.950;11.108;2023-07-29T04:57:17;97702.06;;;19.81;100.00
34586;BME280;20816;50.950;11.108;2023-07-29T04:59:44;97705.00;;;19.90;100.00
34586;BME280;20816;50.950;11.108;2023-07-29T05:02:10;97695.50;;;19.85;100.00
34586;BME280;20816;50.950;11.108;2023-07-29T05:04:37;97705.44;;;19.83;100.00
34586;BME280;20816;50.950;11.108;2023-07-29T05:07:04;97696.84;;;19.80;100.00
34586;BME280;20816;50.950;11.108;2023-07-29T05:09:31;97703.22;;;19.77;100.00
34586;BME280;20816;50.950;11.108;2023-07-29T05:11:58;97700.84;;;19.85;100.00
34586;BME280;20816;50.950;11.108;2023-07-29T05:14:24;97691.03;;;19.86;100.00
34586;BME280;20816;50.950;11.108;2023-07-29T05:16:51;97684.34;;;19.80;100.00
34586;BME280;20816;50.950;11.108;2023-07-29T05:19:18;97692.41;;;19.68;100.00
34586;BME280;20816;50.950;11.108;2023-07-29T05:21:45;97675.25;;;19.59;100.00
34586;BME280;20816;50.950;11.108;2023-07-29T05:24:11;97675.66;;;19.53;100.00
34586;BME280;20816;50.950;11.108;2023-07-29T05:26:38;97675.78;;;19.64;100.00
34586;BME280;20816;50.950;11.108;2023-07-29T05:29:05;97682.13;;;19.74;100.00
34586;BME280;20816;50.950;11.108;2023-07-29T05:31:32;97686.50;;;19.75;100.00
34586;BME280;20816;50.950;11.108;2023-07-29T05:33:59;97687.75;;;19.82;100.00
34586;BME280;20816;50.950;11.108;2023-07-29T05:36:26;97682.25;;;19.97;100.00
34586;BME280;20816;50.950;11.108;2023-07-29T05:38:52;97684.34;;;20.39;100.00
34586;BME280;20816;50.950;11.108;2023-07-29T05:41:19;97670.34;;;20.60;100.00
34586;BME280;20816;50.950;11.108;2023-07-29T05:43:46;97668.63;;;20.48;100.00
34586;BME280;20816;50.950;11.108;2023-07-29T05:46:13;97668.78;;;20.33;100.00
34586;BME280;20816;50.950;11.108;2023-07-29T05:48:40;97672.81;;;20.39;100.00
34586;BME280;20816;50.950;11.108;2023-07-29T05:51:06;97668.75;;;20.46;100.00
34586;BME280;20816;50.950;11.108;2023-07-29T05:53:33;97659.88;;;20.46;100.00
34586;BME280;20816;50.950;11.108;2023-07-29T05:56:00;97663.53;;;20.56;100.00
34586;BME280;20816;50.950;11.108;2023-07-29T05:58:26;97667.31;;;20.64;100.00
34586;BME280;20816;50.950;11.108;2023-07-29T06:00:53;97666.81;;;20.59;100.00
34586;BME280;20816;50.950;11.108;2023-07-29T06:03:20;97671.81;;;20.64;100.00
34586;BME280;20816;50.950;11.108;2023-07-29T06:05:48;97664.31;;;20.69;100.00
34586;BME280;20816;50.950;11.108;2023-07-29T06:08:19;97672.56;;;20.77;100.00
34586;BME280;20816;50.950;11.108;2023-07-29T06:10:46;97675.94;;;20.68;100.00
34586;BME280;20816;50.950;11.108;2023-07-29T06:13:13;97670.84;;;20.76;100.00
34586;BME280;20816;50.950;11.108;2023-07-29T06:15:40;97680.06;;;20.72;100.00
34586;BME280;20816;50.950;11.108;2023-07-29T06:18:06;97683.09;;;20.67;100.00
34586;BME280;20816;50.950;11.108;2023-07-29T06:20:33;97696.81;;;20.63;100.00
34586;BME280;20816;50.950;11.108;2023-07-29T06:22:59;97691.94;;;20.57;100.00
34586;BME280;20816;50.950;11.108;2023-07-29T06:25:26;97693.25;;;20.51;100.00
34586;BME280;20816;50.950;11.108;2023-07-29T06:27:53;97699.44;;;20.52;100.00
34586;BME280;20816;50.950;11.108;2023-07-29T06:30:20;97704.44;;;20.45;100.00
34586;BME280;20816;50.950;11.108;2023-07-29T06:32:46;97704.47;;;20.32;100.00
34586;BME280;20816;50.950;11.108;2023-07-29T06:35:13;97698.97;;;20.47;100.00
34586;BME280;20816;50.950;11.108;2023-07-29T06:37:40;97696.41;;;20.45;100.00
34586;BME280;20816;50.950;11.108;2023-07-29T06:40:07;97691.00;;;20.34;100.00
34586;BME280;20816;50.950;11.108;2023-07-29T06:42:34;97687.00;;;20.28;100.00
34586;BME280;20816;50.950;11.108;2023-07-29T06:45:01;97688.34;;;20.10;100.00
34586;BME280;20816;50.950;11.108;2023-07-29T06:47:27;97691.50;;;20.04;100.00
34586;BME280;20816;50.950;11.108;2023-07-29T06:49:54;97686.19;;;20.15;100.00
34586;BME280;20816;50.950;11.108;2023-07-29T06:52:21;97689.56;;;20.06;100.00
34586;BME280;20816;50.950;11.108;2023-07-29T06:54:47;97680.91;;;20.26;100.00
34586;BME280;20816;50.950;11.108;2023-07-29T06:57:14;97676.91;;;20.32;100.00
34586;BME280;20816;50.950;11.108;2023-07-29T06:59:41;97678.59;;;20.57;100.00
34586;BME280;20816;50.950;11.108;2023-07-29T07:02:08;97680.53;;;20.66;100.00
34586;BME280;20816;50.950;11.108;2023-07-29T07:04:34;97683.47;;;20.74;100.00
34586;BME280;20816;50.950;11.108;2023-07-29T07:07:01;97681.78;;;20.84;100.00
34586;BME280;20816;50.950;11.108;2023-07-29T07:09:28;97688.00;;;20.96;100.00
34586;BME280;20816;50.950;11.108;2023-07-29T07:11:55;97685.94;;;21.11;100.00
34586;BME280;20816;50.950;11.108;2023-07-29T07:14:21;97686.28;;;21.17;100.00
34586;BME280;20816;50.950;11.108;2023-07-29T07:16:48;97688.38;;;21.14;100.00
34586;BME280;20816;50.950;11.108;2023-07-29T07:19:14;97685.09;;;21.44;100.00
34586;BME280;20816;50.950;11.108;2023-07-29T07:21:41;97683.56;;;21.85;100.00
34586;BME280;20816;50.950;11.108;2023-07-29T07:24:08;97688.28;;;22.56;100.00
34586;BME280;20816;50.950;11.108;2023-07-29T07:26:35;97683.34;;;23.03;99.13
34586;BME280;20816;50.950;11.108;2023-07-29T07:29:02;97682.75;;;23.30;98.62
34586;BME280;20816;50.950;11.108;2023-07-29T07:31:32;97681.44;;;23.55;96.28
34586;BME280;20816;50.950;11.108;2023-07-29T07:33:59;97673.28;;;22.96;96.66
34586;BME280;20816;50.950;11.108;2023-07-29T07:36:25;97670.34;;;22.99;98.35
34586;BME280;20816;50.950;11.108;2023-07-29T07:38:52;97678.78;;;22.94;97.01
34586;BME280;20816;50.950;11.108;2023-07-29T07:41:19;97669.56;;;22.87;97.13
34586;BME280;20816;50.950;11.108;2023-07-29T07:43:46;97665.25;;;23.36;95.54
34586;BME280;20816;50.950;11.108;2023-07-29T07:46:12;97669.06;;;23.83;92.12
34586;BME280;20816;50.950;11.108;2023-07-29T07:48:39;97666.69;;;24.09;91.48
34586;BME280;20816;50.950;11.108;2023-07-29T07:51:10;97668.56;;;24.28;90.32
34586;BME280;20816;50.950;11.108;2023-07-29T07:53:37;97671.66;;;24.43;89.75
34586;BME280;20816;50.950;11.108;2023-07-29T07:56:04;97663.28;;;24.26;89.18
34586;BME280;20816;50.950;11.108;2023-07-29T07:58:31;97676.78;;;23.57;91.86
34586;BME280;20816;50.950;11.108;2023-07-29T08:01:05;97671.78;;;23.43;93.58
34586;BME280;20816;50.950;11.108;2023-07-29T08:03:34;97662.66;;;23.55;93.53
34586;BME280;20816;50.950;11.108;2023-07-29T08:06:01;97658.13;;;23.46;93.45
34586;BME280;20816;50.950;11.108;2023-07-29T08:08:28;97655.72;;;23.53;93.67
34586;BME280;20816;50.950;11.108;2023-07-29T08:10:56;97664.09;;;23.29;94.61
34586;BME280;20816;50.950;11.108;2023-07-29T08:13:24;97666.16;;;23.46;94.25
34586;BME280;20816;50.950;11.108;2023-07-29T08:15:52;97668.69;;;23.38;94.10
34586;BME280;20816;50.950;11.108;2023-07-29T08:18:19;97677.81;;;23.66;93.75
34586;BME280;20816;50.950;11.108;2023-07-29T08:20:56;97679.25;;;23.80;91.62
34586;BME280;20816;50.950;11.108;2023-07-29T08:23:31;97667.63;;;23.69;91.45
34586;BME280;20816;50.950;11.108;2023-07-29T08:26:00;97669.91;;;23.64;92.11
34586;BME280;20816;50.950;11.108;2023-07-29T08:28:33;97674.47;;;23.12;92.33
34586;BME280;20816;50.950;11.108;2023-07-29T08:31:00;97667.44;;;23.11;93.00
34586;BME280;20816;50.950;11.108;2023-07-29T08:33:27;97669.56;;;23.17;94.07
34586;BME280;20816;50.950;11.108;2023-07-29T08:35:54;97669.97;;;23.13;93.94
34586;BME280;20816;50.950;11.108;2023-07-29T08:38:21;97667.19;;;23.14;94.39
34586;BME280;20816;50.950;11.108;2023-07-29T08:40:58;97672.25;;;22.87;94.93
34586;BME280;20816;50.950;11.108;2023-07-29T08:43:29;97671.38;;;23.07;94.41
34586;BME280;20816;50.950;11.108;2023-07-29T08:46:00;97658.41;;;23.12;94.77
34586;BME280;20816;50.950;11.108;2023-07-29T08:48:47;97663.06;;;23.10;93.56
34586;BME280;20816;50.950;11.108;2023-07-29T08:51:15;97649.13;;;22.86;93.40
34586;BME280;20816;50.950;11.108;2023-07-29T08:53:43;97653.25;;;22.48;95.76
34586;BME280;20816;50.950;11.108;2023-07-29T08:56:10;97652.00;;;22.52;95.60
34586;BME280;20816;50.950;11.108;2023-07-29T08:58:38;97655.28;;;22.35;97.21
34586;BME280;20816;50.950;11.108;2023-07-29T09:01:05;97665.72;;;22.38;96.55
34586;BME280;20816;50.950;11.108;2023-07-29T09:03:33;97673.75;;;22.38;97.15
34586;BME280;20816;50.950;11.108;2023-07-29T09:06:01;97674.16;;;22.33;97.41
34586;BME280;20816;50.950;11.108;2023-07-29T09:08:29;97676.97;;;22.32;97.77
34586;BME280;20816;50.950;11.108;2023-07-29T09:10:56;97676.69;;;22.35;98.24
34586;BME280;20816;50.950;11.108;2023-07-29T09:13:22;97685.75;;;22.23;98.84
34586;BME280;20816;50.950;11.108;2023-07-29T09:15:54;97673.69;;;22.28;97.35
34586;BME280;20816;50.950;11.108;2023-07-29T09:18:21;97677.06;;;22.30;98.09
34586;BME280;20816;50.950;11.108;2023-07-29T09:20:50;97671.41;;;22.24;98.34
34586;BME280;20816;50.950;11.108;2023-07-29T09:23:17;97676.28;;;22.39;98.09
34586;BME280;20816;50.950;11.108;2023-07-29T09:25:46;97668.06;;;22.52;97.68
34586;BME280;20816;50.950;11.108;2023-07-29T09:28:15;97663.78;;;22.40;96.98
34586;BME280;20816;50.950;11.108;2023-07-29T09:30:44;97661.72;;;22.53;96.35
34586;BME280;20816;50.950;11.108;2023-07-29T09:33:11;97662.91;;;22.60;95.67
34586;BME280;20816;50.950;11.108;2023-07-29T09:35:38;97668.84;;;22.64;95.29
34586;BME280;20816;50.950;11.108;2023-07-29T09:38:06;97666.44;;;22.61;95.24
34586;BME280;20816;50.950;11.108;2023-07-29T09:40:35;97668.53;;;22.57;95.28
34586;BME280;20816;50.950;11.108;2023-07-29T09:43:03;97662.50;;;22.44;94.95
34586;BME280;20816;50.950;11.108;2023-07-29T09:45:33;97659.84;;;22.65;93.92
34586;BME280;20816;50.950;11.108;2023-07-29T09:48:00;97667.47;;;22.70;94.89
34586;BME280;20816;50.950;11.108;2023-07-29T09:50:27;97666.88;;;22.87;94.16
34586;BME280;20816;50.950;11.108;2023-07-29T09:52:54;97665.66;;;22.91;91.90
34586;BME280;20816;50.950;11.108;2023-07-29T09:55:22;97668.38;;;23.01;91.26
34586;BME280;20816;50.950;11.108;2023-07-29T09:57:56;97657.84;;;23.09;91.53
34586;BME280;20816;50.950;11.108;2023-07-29T10:00:27;97652.41;;;22.89;92.19
34586;BME280;20816;50.950;11.108;2023-07-29T10:02:54;97664.47;;;22.84;91.90
34586;BME280;20816;50.950;11.108;2023-07-29T10:05:22;97662.91;;;22.81;91.91
34586;BME280;20816;50.950;11.108;2023-07-29T10:07:53;97656.13;;;22.56;91.17
34586;BME280;20816;50.950;11.108;2023-07-29T10:10:21;97673.91;;;22.57;91.73
34586;BME280;20816;50.950;11.108;2023-07-29T10:12:48;97660.69;;;22.65;91.87
34586;BME280;20816;50.950;11.108;2023-07-29T10:15:17;97675.31;;;22.61;91.30
34586;BME280;20816;50.950;11.108;2023-07-29T10:17:45;97679.63;;;22.74;92.00
34586;BME280;20816;50.950;11.108;2023-07-29T10:20:15;97673.91;;;22.57;91.39
34586;BME280;20816;50.950;11.108;2023-07-29T10:22:45;97675.44;;;22.60;92.18
34586;BME280;20816;50.950;11.108;2023-07-29T10:25:16;97683.28;;;22.52;91.47
34586;BME280;20816;50.950;11.108;2023-07-29T10:27:56;97670.47;;;22.55;91.78
34586;BME280;20816;50.950;11.108;2023-07-29T10:30:24;97673.63;;;22.81;92.04
34586;BME280;20816;50.950;11.108;2023-07-29T10:32:52;97674.44;;;23.03;91.25
34586;BME280;20816;50.950;11.108;2023-07-29T10:35:19;97674.59;;;23.41;89.26
34586;BME280;20816;50.950;11.108;2023-07-29T10:37:46;97671.53;;;23.46;89.32
34586;BME280;20816;50.950;11.108;2023-07-29T10:40:17;97662.84;;;23.63;87.52
34586;BME280;20816;50.950;11.108;2023-07-29T10:48:51;97645.66;;;23.95;84.07
34586;BME280;20816;50.950;11.108;2023-07-29T10:51:26;97642.25;;;23.73;85.96
34586;BME280;20816;50.950;11.108;2023-07-29T10:54:03;97637.44;;;24.16;84.95
34586;BME280;20816;50.950;11.108;2023-07-29T10:56:34;97632.66;;;24.39;83.40
34586;BME280;20816;50.950;11.108;2023-07-29T10:59:22;97630.28;;;24.82;83.03
34586;BME280;20816;50.950;11.108;2023-07-29T11:01:58;97627.69;;;25.10;78.23
34586;BME280;20816;50.950;11.108;2023-07-29T11:04:29;97632.19;;;25.00;79.12
34586;BME280;20816;50.950;11.108;2023-07-29T11:12:51;97619.63;;;26.18;74.61
34586;BME280;20816;50.950;11.108;2023-07-29T11:17:53;97614.34;;;26.78;73.00
34586;BME280;20816;50.950;11.108;2023-07-29T11:20:25;97626.53;;;27.08;72.32
34586;BME280;20816;50.950;11.108;2023-07-29T11:22:53;97614.13;;;26.64;71.92
34586;BME280;20816;50.950;11.108;2023-07-29T11:25:22;97619.06;;;26.76;73.03
34586;BME280;20816;50.950;11.108;2023-07-29T11:27:52;97615.69;;;26.74;71.27
34586;BME280;20816;50.950;11.108;2023-07-29T11:30:19;97619.28;;;26.83;72.51
34586;BME280;20816;50.950;11.108;2023-07-29T11:32:46;97615.09;;;27.15;70.80
34586;BME280;20816;50.950;11.108;2023-07-29T11:35:15;97619.31;;;26.91;70.11
34586;BME280;20816;50.950;11.108;2023-07-29T11:37:48;97621.84;;;27.19;70.10
34586;BME280;20816;50.950;11.108;2023-07-29T11:40:18;97621.94;;;27.43;69.85
34586;BME280;20816;50.950;11.108;2023-07-29T11:42:47;97605.06;;;28.24;69.28
34586;BME280;20816;50.950;11.108;2023-07-29T11:45:14;97616.97;;;27.64;67.84
34586;BME280;20816;50.950;11.108;2023-07-29T11:47:44;97610.84;;;27.46;68.02
34586;BME280;20816;50.950;11.108;2023-07-29T11:50:12;97606.34;;;26.95;68.35
34586;BME280;20816;50.950;11.108;2023-07-29T11:52:46;97605.13;;;27.57;68.66
34586;BME280;20816;50.950;11.108;2023-07-29T11:55:14;97600.16;;;27.95;67.29
34586;BME280;20816;50.950;11.108;2023-07-29T11:57:43;97596.94;;;27.83;66.20
34586;BME280;20816;50.950;11.108;2023-07-29T12:00:11;97599.50;;;28.26;64.24
34586;BME280;20816;50.950;11.108;2023-07-29T12:02:41;97605.09;;;28.32;63.72
34586;BME280;20816;50.950;11.108;2023-07-29T12:05:12;97597.13;;;28.23;65.16
34586;BME280;20816;50.950;11.108;2023-07-29T12:07:40;97596.13;;;28.24;65.44
34586;BME280;20816;50.950;11.108;2023-07-29T12:10:08;97593.72;;;28.86;64.28
34586;BME280;20816;50.950;11.108;2023-07-29T12:12:53;97592.28;;;29.14;62.85
34586;BME280;20816;50.950;11.108;2023-07-29T12:15:28;97597.13;;;29.27;62.99
34586;BME280;20816;50.950;11.108;2023-07-29T12:17:56;97588.69;;;29.22;61.46
34586;BME280;20816;50.950;11.108;2023-07-29T12:20:24;97580.44;;;28.52;63.17
34586;BME280;20816;50.950;11.108;2023-07-29T12:22:55;97594.06;;;28.66;63.10
34586;BME280;20816;50.950;11.108;2023-07-29T12:25:23;97574.53;;;28.32;63.91
34586;BME280;20816;50.950;11.108;2023-07-29T12:27:50;97584.03;;;29.39;62.51
34586;BME280;20816;50.950;11.108;2023-07-29T12:30:20;97567.22;;;29.59;60.57
34586;BME280;20816;50.950;11.108;2023-07-29T12:32:47;97561.28;;;29.25;60.63
34586;BME280;20816;50.950;11.108;2023-07-29T12:35:14;97563.78;;;29.88;60.84
34586;BME280;20816;50.950;11.108;2023-07-29T12:37:41;97567.41;;;29.81;58.95
34586;BME280;20816;50.950;11.108;2023-07-29T12:40:21;97563.88;;;29.10;58.17
34586;BME280;20816;50.950;11.108;2023-07-29T12:42:50;97569.75;;;28.58;60.00
34586;BME280;20816;50.950;11.108;2023-07-29T12:45:18;97575.41;;;27.49;62.39
34586;BME280;20816;50.950;11.108;2023-07-29T12:47:45;97582.03;;;26.87;65.51
34586;BME280;20816;50.950;11.108;2023-07-29T12:50:12;97579.41;;;26.69;66.39
34586;BME280;20816;50.950;11.108;2023-07-29T12:52:38;97576.69;;;26.95;65.98
34586;BME280;20816;50.950;11.108;2023-07-29T12:55:06;97575.13;;;26.84;65.97
34586;BME280;20816;50.950;11.108;2023-07-29T12:57:35;97566.63;;;26.71;66.47
34586;BME280;20816;50.950;11.108;2023-07-29T13:00:03;97579.72;;;26.92;66.49
34586;BME280;20816;50.950;11.108;2023-07-29T13:02:31;97578.09;;;26.73;67.47
34586;BME280;20816;50.950;11.108;2023-07-29T13:04:58;97576.84;;;26.93;66.83
34586;BME280;20816;50.950;11.108;2023-07-29T13:07:25;97578.09;;;26.29;67.21